Bonaire, Nederland

10:09 AM AST op 04 december 2016 (GMT -0400)
Willemstad-Hato International | | Change Station

Hoogte 30 ft 12.19 °N, 68.96 °W | Updated 9 minutes ago

Scattered Clouds
Licht bewolkt
86 °F
Voelt als 95 °F
N
12
Wind Variabel Wind van OZO

Vandaag
Hoog -- | Laag -- °F
--% Kans op neerslag
Gisteren
Hoog -- | Laag -- °F
Precip. -- inches
Druk 29.95 inches
Zicht 6.2 mijlen
Wolken Licht bewolkt 2000 ft
Warmteindex 95 °F
Dauwpunt 75 °F
Vochtigheid 70%
Neerslag 0.00 inches
Dikte sneeuw Niet beschikbaar.
6:42 AM 6:09 PM
Wassende halvemaan, 23% visible
METAR TNCC 041400Z 11010KT 080V140 9999 SCT020 30/24 Q1014 NOSIG
Druk 29.95 inches
Zicht 6.2 mijlen
Wolken Licht bewolkt 2000 ft
Warmteindex 95 °F
Dauwpunt 75 °F
Vochtigheid 70%
Neerslag 0.00 inches
Dikte sneeuw Niet beschikbaar.
6:42 AM 6:09 PM
Wassende halvemaan, 23% visible
METAR TNCC 041400Z 11010KT 080V140 9999 SCT020 30/24 Q1014 NOSIG

10-Day Weather Forecast

×

Almanac

Astronomie

Dec. 04, 2016 Opkomst Ondergang
Werkelijke tijd
Burgerlijke schemering
Nautische schemering
Astronomische schemering
Maan
Golflengte van het zichtbare licht
Daglengte
Tomorrow will be .
, % of the Moon is Illuminated

Extremen vandaag

Country Highs Country Lows

Community

WunderPhotos

Upload Photos

1,955,596 foto’s ge-upload!

WunderBlog® & News

Nearby

Luchtkwaliteit

  Luchtkwaliteit LK-index Verontreinigende stof
Not available.

Dikte sneeuw

Station Depth Geometrische hoogte

Aardbevingen

Stad Distance Mag. Time & Date
Minimum magnitude displayed is 2.5.

Watertemperatuur langs de kust

Plaats Temperatuur

Stations

Nabije weerstations

Locatie station Temp. Gevoelstemperatuur Dauwpunt Vochtigheid Wind Precip. Hoogte Geactualiseerd Type